TimeCST,TemperatureF,Dew PointF,Humidity,Sea Level PressureIn,VisibilityMPH,Wind Direction,Wind SpeedMPH,Gust SpeedMPH,PrecipitationIn,Events,Conditions,WindDirDegrees,DateUTC
12:15 AM,35.6,21.2,56,30.32,10.0,Calm,Calm,-,N/A,,Clear,0,2012-11-12 06:15:00
12:35 AM,33.8,21.2,60,30.32,10.0,Calm,Calm,-,N/A,,Clear,0,2012-11-12 06:35:00
12:55 AM,35.6,19.4,52,30.32,10.0,Calm,Calm,-,N/A,,Clear,0,2012-11-12 06:55:00
1:15 AM,35.6,21.2,56,30.33,10.0,Calm,Calm,-,N/A,,Clear,0,2012-11-12 07:15:00
1:35 AM,35.6,19.4,52,30.34,10.0,Calm,Calm,-,N/A,,Clear,0,2012-11-12 07:35:00
1:55 AM,33.8,17.6,52,30.35,10.0,Calm,Calm,-,N/A,,Clear,0,2012-11-12 07:55:00
2:15 AM,33.8,17.6,52,30.35,10.0,NNE,4.6,-,N/A,,Clear,20,2012-11-12 08:15:00
2:35 AM,41.0,10.4,29,30.35,10.0,North,8.1,-,N/A,,Clear,360,2012-11-12 08:35:00
2:55 AM,37.4,10.4,33,30.35,10.0,North,6.9,-,N/A,,Clear,360,2012-11-12 08:55:00
3:15 AM,35.6,12.2,38,30.35,10.0,North,6.9,-,N/A,,Clear,360,2012-11-12 09:15:00
3:35 AM,33.8,12.2,41,30.36,10.0,North,6.9,-,N/A,,Clear,360,2012-11-12 09:35:00
3:55 AM,32.0,14.0,48,30.37,10.0,NNE,8.1,-,N/A,,Clear,30,2012-11-12 09:55:00
4:15 AM,32.0,12.2,44,30.37,10.0,North,5.8,-,N/A,,Clear,10,2012-11-12 10:15:00
4:35 AM,32.0,14.0,48,30.38,10.0,NNE,8.1,-,N/A,,Clear,30,2012-11-12 10:35:00
4:55 AM,32.0,14.0,48,30.38,10.0,North,6.9,-,N/A,,Clear,10,2012-11-12 10:55:00
5:15 AM,32.0,14.0,48,30.39,10.0,North,4.6,-,N/A,,Clear,360,2012-11-12 11:15:00
5:35 AM,32.0,14.0,48,30.40,10.0,North,5.8,-,N/A,,Clear,10,2012-11-12 11:35:00
5:55 AM,32.0,14.0,48,30.41,10.0,North,5.8,-,N/A,,Clear,10,2012-11-12 11:55:00
6:15 AM,30.2,14.0,51,30.42,10.0,NNE,5.8,-,N/A,,Clear,20,2012-11-12 12:15:00
6:35 AM,30.2,14.0,51,30.43,10.0,NE,6.9,-,N/A,,Clear,40,2012-11-12 12:35:00
6:55 AM,30.2,14.0,51,30.43,10.0,NNE,4.6,-,N/A,,Clear,20,2012-11-12 12:55:00
7:15 AM,30.2,14.0,51,30.42,10.0,NNE,4.6,-,N/A,,Clear,30,2012-11-12 13:15:00
7:35 AM,30.2,15.8,55,30.43,10.0,Calm,Calm,-,N/A,,Clear,0,2012-11-12 13:35:00
7:55 AM,32.0,17.6,55,30.44,10.0,NE,5.8,-,N/A,,Clear,40,2012-11-12 13:55:00
8:15 AM,32.0,17.6,55,30.45,10.0,NNE,3.5,-,N/A,,Clear,20,2012-11-12 14:15:00
8:35 AM,37.4,19.4,48,30.48,10.0,NNE,3.5,-,N/A,,Clear,30,2012-11-12 14:35:00
8:55 AM,41.0,28.4,61,30.48,10.0,NNE,8.1,-,N/A,,Clear,20,2012-11-12 14:55:00
9:15 AM,42.8,28.4,57,30.49,10.0,NNE,9.2,-,N/A,,Clear,20,2012-11-12 15:15:00
9:35 AM,44.6,30.2,57,30.49,10.0,NNE,9.2,-,N/A,,Clear,20,2012-11-12 15:35:00
9:55 AM,46.4,32.0,57,30.49,10.0,North,8.1,-,N/A,,Clear,10,2012-11-12 15:55:00
10:15 AM,46.4,32.0,57,30.49,10.0,NNE,10.4,-,N/A,,Clear,30,2012-11-12 16:15:00
10:35 AM,48.2,32.0,54,30.49,10.0,NNE,9.2,-,N/A,,Clear,20,2012-11-12 16:35:00
10:55 AM,50.0,30.2,47,30.49,10.0,NNE,11.5,-,N/A,,Clear,30,2012-11-12 16:55:00
11:15 AM,51.8,28.4,41,30.48,10.0,NNE,11.5,17.3,N/A,,Clear,30,2012-11-12 17:15:00
11:35 AM,51.8,26.6,38,30.48,10.0,NNE,12.7,-,N/A,,Clear,20,2012-11-12 17:35:00
11:55 AM,53.6,26.6,35,30.47,10.0,NE,9.2,18.4,N/A,,Clear,40,2012-11-12 17:55:00
12:15 PM,53.6,23.0,30,30.46,10.0,NNE,9.2,16.1,N/A,,Clear,30,2012-11-12 18:15:00
12:35 PM,55.4,23.0,29,30.46,10.0,NE,10.4,-,N/A,,Clear,50,2012-11-12 18:35:00
12:55 PM,55.4,23.0,29,30.45,10.0,East,4.6,-,N/A,,Clear,90,2012-11-12 18:55:00
1:15 PM,57.2,21.2,25,30.44,10.0,ENE,3.5,-,N/A,,Clear,60,2012-11-12 19:15:00
1:35 PM,59.0,19.4,22,30.42,10.0,NNE,8.1,-,N/A,,Clear,20,2012-11-12 19:35:00
1:55 PM,57.2,19.4,23,30.41,10.0,NE,6.9,-,N/A,,Clear,40,2012-11-12 19:55:00
2:15 PM,59.0,19.4,22,30.41,10.0,NE,11.5,-,N/A,,Clear,40,2012-11-12 20:15:00
2:35 PM,59.0,17.6,20,30.41,10.0,NNE,6.9,-,N/A,,Clear,30,2012-11-12 20:35:00
2:55 PM,59.0,17.6,20,30.41,10.0,NNE,9.2,16.1,N/A,,Clear,30,2012-11-12 20:55:00
3:15 PM,59.0,17.6,20,30.41,10.0,NE,8.1,-,N/A,,Clear,50,2012-11-12 21:15:00
3:35 PM,59.0,17.6,20,30.40,10.0,NE,9.2,-,N/A,,Clear,40,2012-11-12 21:35:00
3:55 PM,59.0,19.4,22,30.40,10.0,North,10.4,-,N/A,,Clear,10,2012-11-12 21:55:00
4:35 PM,57.2,17.6,21,30.39,10.0,ENE,9.2,-,N/A,,Clear,60,2012-11-12 22:35:00
4:55 PM,57.2,19.4,23,30.39,10.0,NE,5.8,-,N/A,,Clear,50,2012-11-12 22:55:00
5:15 PM,55.4,19.4,25,30.39,10.0,ENE,4.6,-,N/A,,Clear,60,2012-11-12 23:15:00
5:35 PM,53.6,21.2,28,30.39,10.0,ENE,5.8,-,N/A,,Clear,60,2012-11-12 23:35:00
5:55 PM,53.6,21.2,28,30.40,10.0,ENE,4.6,-,N/A,,Clear,60,2012-11-12 23:55:00
6:15 PM,50.0,23.0,35,30.40,7.0,ENE,5.8,-,N/A,,Clear,60,2012-11-13 00:15:00
6:35 PM,48.2,23.0,37,30.41,10.0,NE,3.5,-,N/A,,Clear,40,2012-11-13 00:35:00
6:55 PM,46.4,23.0,40,30.42,10.0,NNE,4.6,-,N/A,,Clear,30,2012-11-13 00:55:00
7:15 PM,46.4,23.0,40,30.44,10.0,NE,3.5,-,N/A,,Clear,40,2012-11-13 01:15:00
7:35 PM,46.4,23.0,40,30.44,10.0,ENE,4.6,-,N/A,,Clear,60,2012-11-13 01:35:00
7:55 PM,46.4,23.0,40,30.44,10.0,ENE,8.1,-,N/A,,Clear,60,2012-11-13 01:55:00
8:35 PM,46.4,23.0,40,30.44,10.0,East,6.9,-,N/A,,Clear,80,2012-11-13 02:35:00
8:55 PM,46.4,23.0,40,30.45,10.0,ENE,8.1,-,N/A,,Clear,70,2012-11-13 02:55:00
9:15 PM,44.6,23.0,43,30.45,10.0,East,4.6,-,N/A,,Clear,80,2012-11-13 03:15:00
9:35 PM,41.0,24.8,53,30.45,10.0,Calm,Calm,-,N/A,,Clear,0,2012-11-13 03:35:00
9:55 PM,41.0,24.8,53,30.46,10.0,North,3.5,-,N/A,,Clear,360,2012-11-13 03:55:00
10:15 PM,41.0,24.8,53,30.46,10.0,Calm,Calm,-,N/A,,Clear,0,2012-11-13 04:15:00
10:35 PM,42.8,23.0,46,30.46,10.0,NNE,4.6,-,N/A,,Clear,20,2012-11-13 04:35:00
10:55 PM,41.0,23.0,49,30.46,10.0,Calm,Calm,-,N/A,,Clear,0,2012-11-13 04:55:00
11:15 PM,41.0,24.8,53,30.46,10.0,Calm,Calm,-,N/A,,Clear,0,2012-11-13 05:15:00
11:35 PM,39.2,24.8,56,30.46,10.0,Calm,Calm,-,N/A,,Clear,0,2012-11-13 05:35:00
11:55 PM,37.4,26.6,65,30.46,10.0,Calm,Calm,-,N/A,,Clear,0,2012-11-13 05:55:00